Time;durP1;ratioP1;P1;durP2;ratioP2;P2;SDS_P1;SDS_P2;PMS_P1;PMS_P2;Temp;Humidity;BMP_temperature;BMP_pressure;BME280_temperature;BME280_humidity;BME280_pressure;Samples;Min_cycle;Max_cycle;Signal;HPM_P1;HPM_P2
2022/04/03 00:01:57;;;;;;;3.92;2.20;;;-0.90;77.00;;;;;;5058693;28;20033;-67
2022/04/03 00:04:24;;;;;;;2.60;1.90;;;-0.90;77.20;;;;;;5060003;28;20044;-67
2022/04/03 00:06:50;;;;;;;3.42;1.80;;;-0.90;77.30;;;;;;5061678;28;20113;-68
2022/04/03 00:09:15;;;;;;;4.15;2.45;;;-0.90;77.30;;;;;;5061196;28;20033;-67
2022/04/03 00:11:41;;;;;;;8.20;2.20;;;-0.90;77.40;;;;;;5059195;28;20040;-67
2022/04/03 00:14:08;;;;;;;3.92;2.30;;;-1.00;77.50;;;;;;5051514;28;20029;-68
2022/04/03 00:16:35;;;;;;;5.28;2.00;;;-1.00;77.50;;;;;;5058416;28;20162;-67
2022/04/03 00:19:01;;;;;;;4.05;2.00;;;-1.00;77.60;;;;;;5057116;28;20043;-67
2022/04/03 00:21:26;;;;;;;3.42;1.60;;;-1.00;77.70;;;;;;5058729;28;20054;-67
2022/04/03 00:23:52;;;;;;;2.47;2.00;;;-1.00;77.80;;;;;;5060680;28;20136;-67
2022/04/03 00:26:18;;;;;;;3.50;2.20;;;-1.10;77.90;;;;;;5059423;28;20051;-67
2022/04/03 00:28:44;;;;;;;4.28;2.10;;;-1.10;78.10;;;;;;5060555;28;20031;-67
2022/04/03 00:31:12;;;;;;;3.60;2.58;;;-1.10;78.30;;;;;;5054475;28;20039;-67
2022/04/03 00:33:38;;;;;;;4.55;3.15;;;-1.10;78.30;;;;;;5055684;28;20090;-67
2022/04/03 00:36:05;;;;;;;6.05;3.67;;;-1.10;78.50;;;;;;5059460;28;20136;-67
2022/04/03 00:38:31;;;;;;;6.97;2.90;;;-1.10;78.60;;;;;;5063312;28;20047;-67
2022/04/03 00:40:58;;;;;;;3.85;2.28;;;-1.20;78.70;;;;;;5062080;28;20028;-68
2022/04/03 00:43:24;;;;;;;5.45;2.28;;;-1.20;78.80;;;;;;5057678;28;20763;-67
2022/04/03 00:45:51;;;;;;;2.33;2.13;;;-1.20;79.20;;;;;;5062597;28;20211;-67
2022/04/03 00:48:17;;;;;;;2.60;1.58;;;-1.20;79.50;;;;;;5058164;28;20036;-67
2022/04/03 00:50:44;;;;;;;4.70;1.98;;;-1.30;79.60;;;;;;5059486;28;20040;-67
2022/04/03 00:53:10;;;;;;;4.00;2.17;;;-1.30;79.70;;;;;;5060944;28;20032;-67
2022/04/03 00:55:39;;;;;;;8.40;1.92;;;-1.30;79.90;;;;;;5061195;28;20311;-69
2022/04/03 00:58:05;;;;;;;3.20;2.00;;;-1.30;80.10;;;;;;5061213;28;20110;-67
2022/04/03 01:00:30;;;;;;;3.58;2.10;;;-1.30;80.10;;;;;;5061308;28;20496;-67
2022/04/03 01:02:56;;;;;;;3.90;2.15;;;-1.30;80.10;;;;;;5059515;28;20036;-67
2022/04/03 01:05:23;;;;;;;3.95;1.73;;;-1.40;80.10;;;;;;5060910;28;20036;-66
2022/04/03 01:07:50;;;;;;;3.00;1.70;;;-1.30;80.10;;;;;;5060853;28;20141;-67
2022/04/03 01:10:16;;;;;;;3.75;2.22;;;-1.40;80.00;;;;;;5061041;28;20072;-67
2022/04/03 01:12:46;;;;;;;2.75;1.92;;;-1.40;80.00;;;;;;5062369;28;20031;-67
2022/04/03 01:15:16;;;;;;;3.90;2.22;;;-1.40;80.10;;;;;;5060746;28;20040;-67
2022/04/03 01:17:43;;;;;;;5.22;2.33;;;-1.40;80.00;;;;;;5057498;28;20120;-67
2022/04/03 01:20:10;;;;;;;4.15;2.17;;;-1.50;80.40;;;;;;5048653;28;20029;-67
2022/04/03 01:22:36;;;;;;;2.20;1.60;;;-1.50;80.70;;;;;;5062024;28;20032;-67
2022/04/03 01:25:02;;;;;;;3.72;1.88;;;-1.50;80.80;;;;;;5059431;28;20029;-67
2022/04/03 01:27:28;;;;;;;2.60;1.88;;;-1.50;80.90;;;;;;5061377;28;20032;-67
2022/04/03 01:29:54;;;;;;;4.60;2.03;;;-1.50;81.10;;;;;;5038841;28;20481;-67
2022/04/03 01:32:20;;;;;;;5.45;2.00;;;-1.50;81.00;;;;;;5055825;28;20044;-68
2022/04/03 01:34:46;;;;;;;3.42;2.03;;;-1.50;81.10;;;;;;5058214;28;20044;-67
2022/04/03 01:37:12;;;;;;;5.43;2.28;;;-1.40;81.10;;;;;;5057855;28;20028;-67
2022/04/03 01:39:38;;;;;;;2.63;2.08;;;-1.50;81.20;;;;;;5059768;28;20660;-68
2022/04/03 01:42:04;;;;;;;3.45;2.28;;;-1.40;81.20;;;;;;5061303;28;20134;-67
2022/04/03 01:44:30;;;;;;;7.90;2.28;;;-1.40;81.00;;;;;;5061855;28;20491;-68
2022/04/03 01:46:56;;;;;;;4.38;1.80;;;-1.40;80.70;;;;;;5038610;28;20024;-68
2022/04/03 01:49:22;;;;;;;5.45;2.58;;;-1.40;80.80;;;;;;5054413;28;20036;-67
2022/04/03 01:51:48;;;;;;;4.97;2.83;;;-1.40;80.80;;;;;;5057857;28;20530;-67
2022/04/03 01:54:14;;;;;;;5.80;2.95;;;-1.50;80.80;;;;;;5056453;28;20037;-67
2022/04/03 01:56:40;;;;;;;2.75;2.03;;;-1.50;80.90;;;;;;5058998;28;20761;-68
2022/04/03 01:59:07;;;;;;;4.50;2.45;;;-1.50;81.30;;;;;;5060451;28;20025;-68
2022/04/03 02:01:34;;;;;;;3.20;2.25;;;-1.50;81.30;;;;;;5061287;28;20036;-68
2022/04/03 02:04:00;;;;;;;5.07;2.40;;;-1.40;81.10;;;;;;5054869;28;20563;-67
2022/04/03 02:06:27;;;;;;;3.38;2.20;;;-1.30;80.90;;;;;;5057364;28;20296;-66
2022/04/03 02:08:53;;;;;;;2.95;1.80;;;-1.20;80.60;;;;;;5057385;28;20033;-67
2022/04/03 02:11:19;;;;;;;6.03;2.30;;;-1.00;80.10;;;;;;5059127;28;20443;-67
2022/04/03 02:13:45;;;;;;;4.60;2.13;;;-0.90;79.90;;;;;;5042125;28;20546;-67
2022/04/03 02:16:11;;;;;;;3.95;2.00;;;-0.70;80.00;;;;;;5059599;28;20032;-67
2022/04/03 02:18:38;;;;;;;3.15;2.20;;;-0.60;79.50;;;;;;5060342;28;20028;-68
2022/04/03 02:21:04;;;;;;;4.82;1.98;;;-0.50;79.50;;;;;;5059061;28;20773;-69
2022/04/03 02:23:29;;;;;;;2.78;1.90;;;-0.40;79.20;;;;;;5041991;28;20089;-67
2022/04/03 02:25:55;;;;;;;3.65;2.30;;;-0.30;79.20;;;;;;5055006;28;20344;-68
2022/04/03 02:28:21;;;;;;;3.42;1.98;;;-0.20;78.80;;;;;;5057386;28;20033;-67
2022/04/03 02:30:48;;;;;;;3.03;1.80;;;-0.10;78.60;;;;;;5059604;28;20105;-68
2022/04/03 02:33:14;;;;;;;2.55;1.60;;;-0.10;78.40;;;;;;5059582;28;20033;-67
2022/04/03 02:35:41;;;;;;;2.95;1.77;;;0.00;77.90;;;;;;5056128;28;20024;-67
2022/04/03 02:38:07;;;;;;;4.93;2.65;;;0.10;77.60;;;;;;5059174;28;20041;-67
2022/04/03 02:40:34;;;;;;;6.05;2.30;;;0.10;76.40;;;;;;5056971;28;20101;-67
2022/04/03 02:42:59;;;;;;;3.85;1.83;;;0.10;74.80;;;;;;5056338;28;20040;-67
2022/04/03 02:45:25;;;;;;;3.63;2.30;;;0.20;74.50;;;;;;5058418;28;20040;-67
2022/04/03 02:47:53;;;;;;;6.97;2.30;;;0.10;74.30;;;;;;5041888;28;20036;-67
2022/04/03 02:50:20;;;;;;;3.00;1.88;;;0.10;74.30;;;;;;5054097;28;20064;-67
2022/04/03 02:52:50;;;;;;;5.35;2.03;;;0.20;74.30;;;;;;5057582;28;20099;-68
2022/04/03 02:55:18;;;;;;;3.17;2.20;;;0.10;74.40;;;;;;5058676;28;20527;-67
2022/04/03 02:57:43;;;;;;;5.20;2.13;;;0.20;74.90;;;;;;5060227;28;20036;-67
2022/04/03 03:00:14;;;;;;;4.32;2.00;;;0.20;75.20;;;;;;5051970;28;20037;-67
2022/04/03 03:02:42;;;;;;;5.55;2.08;;;0.20;75.20;;;;;;5038901;28;20040;-67
2022/04/03 03:05:08;;;;;;;4.18;2.33;;;0.30;75.10;;;;;;5059699;28;20047;-67
2022/04/03 03:07:38;;;;;;;4.57;1.80;;;0.30;75.20;;;;;;5054880;28;20021;-68
2022/04/03 03:10:06;;;;;;;3.55;1.90;;;0.30;75.10;;;;;;5054852;28;20828;-67
2022/04/03 03:12:31;;;;;;;2.35;1.67;;;0.40;74.50;;;;;;5055334;28;20036;-67
2022/04/03 03:14:57;;;;;;;3.50;2.20;;;0.40;74.70;;;;;;5057807;28;20035;-67
2022/04/03 03:17:23;;;;;;;5.45;2.55;;;0.40;75.00;;;;;;5058886;28;20131;-67
2022/04/03 03:19:49;;;;;;;3.50;2.25;;;0.40;75.50;;;;;;5058988;28;20564;-67
2022/04/03 03:22:14;;;;;;;3.47;2.03;;;0.40;75.70;;;;;;5049518;28;20091;-67
2022/04/03 03:24:41;;;;;;;5.90;2.78;;;0.40;75.60;;;;;;5055122;28;20028;-68
2022/04/03 03:27:06;;;;;;;3.97;2.50;;;0.50;75.90;;;;;;5053353;28;20037;-67
2022/04/03 03:29:32;;;;;;;3.67;1.80;;;0.50;75.60;;;;;;5058402;28;20048;-67
2022/04/03 03:31:58;;;;;;;4.80;2.38;;;0.60;75.70;;;;;;5056717;28;20658;-68
2022/04/03 03:34:23;;;;;;;3.53;2.00;;;0.60;75.50;;;;;;5058149;28;20040;-67
2022/04/03 03:36:49;;;;;;;7.15;2.33;;;0.70;75.10;;;;;;5058428;28;20111;-67
2022/04/03 03:39:16;;;;;;;3.97;2.38;;;0.70;74.70;;;;;;5053880;28;20032;-67
2022/04/03 03:41:43;;;;;;;3.40;2.03;;;0.70;74.70;;;;;;5053890;28;20028;-67
2022/04/03 03:44:10;;;;;;;3.55;2.00;;;0.70;75.00;;;;;;5055840;28;20037;-67
2022/04/03 03:46:39;;;;;;;3.20;2.20;;;0.70;75.20;;;;;;5057712;28;20036;-67
2022/04/03 03:49:06;;;;;;;2.90;2.15;;;0.70;75.20;;;;;;5057933;28;20040;-67
2022/04/03 03:51:36;;;;;;;3.90;2.30;;;0.70;75.20;;;;;;5058949;28;20123;-67
2022/04/03 03:54:03;;;;;;;7.32;2.72;;;0.70;75.30;;;;;;5058451;28;20056;-67
2022/04/03 03:56:28;;;;;;;3.33;2.40;;;0.70;75.40;;;;;;5053110;28;20091;-67
2022/04/03 03:58:54;;;;;;;3.83;2.58;;;0.70;75.40;;;;;;5055990;28;20555;-68
2022/04/03 04:01:21;;;;;;;4.95;2.50;;;0.70;75.40;;;;;;5056177;28;20037;-67
2022/04/03 04:03:47;;;;;;;6.63;3.30;;;0.80;75.40;;;;;;5057505;28;20032;-67
2022/04/03 04:06:12;;;;;;;7.43;2.70;;;0.70;75.30;;;;;;5054222;28;20044;-68
2022/04/03 04:08:39;;;;;;;3.45;2.40;;;0.80;75.20;;;;;;5055043;28;20107;-67
2022/04/03 04:11:05;;;;;;;4.10;2.60;;;0.80;75.00;;;;;;5058571;28;20060;-67
2022/04/03 04:13:31;;;;;;;6.30;2.63;;;0.80;74.90;;;;;;5059316;28;20064;-68
2022/04/03 04:15:57;;;;;;;4.38;2.92;;;0.80;74.70;;;;;;5054388;28;20127;-66
2022/04/03 04:18:23;;;;;;;6.65;3.10;;;0.80;75.00;;;;;;5057108;28;20127;-67
2022/04/03 04:20:50;;;;;;;5.20;2.67;;;0.80;74.60;;;;;;5059995;28;20036;-68
2022/04/03 04:23:16;;;;;;;4.82;2.72;;;0.80;74.80;;;;;;5054583;28;20029;-69
2022/04/03 04:25:42;;;;;;;5.38;2.80;;;0.70;74.50;;;;;;5055648;28;20075;-67
2022/04/03 04:28:07;;;;;;;7.90;3.20;;;0.70;74.70;;;;;;5055799;28;20040;-67
2022/04/03 04:30:33;;;;;;;4.15;2.78;;;0.70;75.00;;;;;;5057597;28;20033;-67
2022/04/03 04:32:59;;;;;;;5.75;2.67;;;0.70;74.90;;;;;;5041187;28;20036;-67
2022/04/03 04:35:25;;;;;;;5.97;2.83;;;0.70;75.30;;;;;;5058541;28;20845;-67
2022/04/03 04:37:51;;;;;;;6.70;3.08;;;0.70;75.10;;;;;;5058958;28;20081;-68
2022/04/03 04:40:16;;;;;;;5.47;2.92;;;0.80;74.60;;;;;;5060003;28;20046;-67
2022/04/03 04:42:43;;;;;;;5.65;3.05;;;0.70;74.50;;;;;;5059515;28;20577;-66
2022/04/03 04:45:09;;;;;;;5.65;2.85;;;0.80;74.60;;;;;;5059630;28;20033;-68
2022/04/03 04:47:36;;;;;;;5.82;2.70;;;0.80;74.50;;;;;;5061313;28;20040;-67
2022/04/03 04:50:10;;;;;;;4.03;2.60;;;0.80;74.40;;;;;;5061877;28;20024;-67
2022/04/03 04:52:37;;;;;;;7.97;2.75;;;0.80;74.20;;;;;;5044003;28;20123;-67
2022/04/03 04:55:06;;;;;;;9.10;2.03;;;0.80;74.10;;;;;;5061226;28;20415;-68
2022/04/03 04:57:33;;;;;;;4.68;2.17;;;0.80;73.80;;;;;;5043047;28;20156;-68
2022/04/03 04:59:59;;;;;;;3.67;2.42;;;0.80;73.70;;;;;;5060962;28;20037;-67
2022/04/03 05:02:25;;;;;;;5.40;1.80;;;0.80;73.70;;;;;;5060581;28;20040;-67
2022/04/03 05:04:51;;;;;;;3.58;2.40;;;0.80;73.30;;;;;;5061555;28;20032;-67
2022/04/03 05:07:17;;;;;;;4.95;2.17;;;0.80;73.10;;;;;;5062452;28;20024;-67
2022/04/03 05:09:45;;;;;;;5.28;1.90;;;0.90;73.10;;;;;;5062892;28;20555;-67
2022/04/03 05:12:11;;;;;;;3.20;1.83;;;0.90;72.50;;;;;;5059015;28;20047;-67
2022/04/03 05:14:38;;;;;;;2.45;1.73;;;1.00;72.20;;;;;;5062406;28;20492;-67
2022/04/03 05:17:05;;;;;;;2.88;1.98;;;1.00;72.10;;;;;;5059632;28;20035;-67
2022/04/03 05:19:32;;;;;;;2.25;1.77;;;0.90;72.00;;;;;;5060611;28;20036;-67
2022/04/03 05:21:58;;;;;;;2.05;1.48;;;1.00;72.30;;;;;;5059811;28;20020;-67
2022/04/03 05:24:24;;;;;;;3.72;1.92;;;1.10;72.30;;;;;;5059063;28;20076;-67
2022/04/03 05:26:50;;;;;;;5.18;2.10;;;1.10;72.10;;;;;;5060782;28;20432;-67
2022/04/03 05:29:16;;;;;;;3.05;1.88;;;1.20;71.60;;;;;;5061019;28;20043;-67
2022/04/03 05:31:43;;;;;;;3.20;2.05;;;1.30;71.00;;;;;;5043823;28;20040;-67
2022/04/03 05:34:09;;;;;;;4.93;2.10;;;1.40;70.70;;;;;;5055801;28;20078;-67
2022/04/03 05:36:37;;;;;;;14.60;7.65;;;1.60;69.90;;;;;;5056150;28;20123;-67
2022/04/03 05:39:04;;;;;;;25.50;12.63;;;1.80;69.40;;;;;;5059882;28;20524;-67
2022/04/03 05:41:34;;;;;;;27.92;13.77;;;2.00;68.70;;;;;;5062050;28;20511;-67
2022/04/03 05:44:01;;;;;;;95.60;27.52;;;2.10;68.00;;;;;;5058350;28;20036;-68
2022/04/03 05:46:27;;;;;;;88.05;25.90;;;2.20;67.40;;;;;;5060910;28;20056;-67
2022/04/03 05:48:53;;;;;;;71.13;19.92;;;2.30;66.90;;;;;;5057491;28;20829;-68
2022/04/03 05:51:19;;;;;;;55.35;17.13;;;2.30;66.70;;;;;;5060140;28;20123;-68
2022/04/03 05:53:45;;;;;;;11.40;5.13;;;2.40;66.30;;;;;;5061255;28;20788;-67
2022/04/03 05:56:11;;;;;;;8.48;3.53;;;2.60;66.10;;;;;;5050961;28;20036;-68
2022/04/03 05:58:37;;;;;;;4.10;2.10;;;2.70;65.40;;;;;;5044949;28;20028;-68
2022/04/03 06:01:03;;;;;;;11.43;5.60;;;2.80;64.60;;;;;;5057322;28;20039;-67
2022/04/03 06:03:28;;;;;;;19.75;10.05;;;3.40;63.00;;;;;;5060334;28;20124;-67
2022/04/03 06:05:54;;;;;;;38.92;20.00;;;3.50;61.80;;;;;;5060304;28;20139;-67
2022/04/03 06:08:20;;;;;;;25.83;13.15;;;3.50;62.40;;;;;;5059596;28;20825;-67
2022/04/03 06:10:45;;;;;;;21.88;12.63;;;3.50;61.60;;;;;;5058485;28;20041;-67
2022/04/03 06:13:13;;;;;;;32.10;18.25;;;3.40;61.00;;;;;;5055527;28;20127;-67
2022/04/03 06:15:40;;;;;;;35.15;15.75;;;3.40;61.80;;;;;;5060806;28;20764;-67
2022/04/03 06:18:12;;;;;;;21.52;10.68;;;3.50;61.60;;;;;;5057409;28;20128;-67
2022/04/03 06:20:38;;;;;;;31.48;16.52;;;3.70;61.10;;;;;;5058978;28;20086;-68
2022/04/03 06:23:15;;;;;;;17.00;7.90;;;4.00;60.20;;;;;;5058923;28;20025;-67
2022/04/03 06:25:42;;;;;;;18.52;10.68;;;4.30;58.60;;;;;;5060812;28;20047;-67
2022/04/03 06:28:08;;;;;;;18.25;9.35;;;4.40;57.30;;;;;;5057626;28;20189;-67
2022/04/03 06:30:34;;;;;;;19.38;11.30;;;4.50;57.20;;;;;;5058917;28;20032;-67
2022/04/03 06:33:01;;;;;;;21.40;10.75;;;4.60;56.40;;;;;;5059888;28;20086;-67
2022/04/03 06:35:26;;;;;;;10.43;5.90;;;4.70;56.10;;;;;;5058392;28;20021;-67
2022/04/03 06:37:52;;;;;;;4.53;2.60;;;4.60;56.80;;;;;;5058880;28;20451;-67
2022/04/03 06:40:18;;;;;;;2.97;2.00;;;4.50;57.10;;;;;;5058551;28;20058;-68
2022/04/03 06:42:44;;;;;;;11.65;5.50;;;4.40;57.00;;;;;;5058933;28;20048;-67
2022/04/03 06:45:10;;;;;;;4.03;2.50;;;4.30;57.00;;;;;;5056431;28;20123;-67
2022/04/03 06:47:36;;;;;;;10.32;3.08;;;5.20;56.30;;;;;;5057331;28;20036;-67
2022/04/03 06:50:03;;;;;;;5.07;3.08;;;8.70;50.10;;;;;;5055511;28;20412;-67
2022/04/03 06:52:29;;;;;;;9.10;5.05;;;10.90;43.00;;;;;;5058530;28;20101;-68
2022/04/03 06:54:55;;;;;;;9.55;5.47;;;11.10;41.00;;;;;;5056415;28;20806;-68
2022/04/03 06:57:21;;;;;;;14.82;7.43;;;10.80;41.30;;;;;;5058142;28;20040;-68
2022/04/03 06:59:47;;;;;;;9.73;4.07;;;10.20;40.80;;;;;;5058150;28;20040;-68
2022/04/03 07:02:13;;;;;;;3.13;1.95;;;9.60;41.60;;;;;;5055435;28;20047;-68
2022/04/03 07:04:38;;;;;;;6.13;3.33;;;9.10;43.50;;;;;;5056577;28;20032;-68
2022/04/03 07:07:04;;;;;;;6.53;4.20;;;8.60;43.60;;;;;;5051917;28;20428;-68
2022/04/03 07:09:31;;;;;;;3.95;2.63;;;8.20;45.00;;;;;;5057188;28;20066;-68
2022/04/03 07:11:57;;;;;;;5.00;2.47;;;8.20;45.60;;;;;;5057375;28;20047;-68
2022/04/03 07:14:22;;;;;;;3.42;2.28;;;8.70;45.10;;;;;;5059897;28;20044;-68
2022/04/03 07:16:49;;;;;;;4.80;2.85;;;9.30;43.60;;;;;;5059174;28;20035;-67
2022/04/03 07:19:14;;;;;;;5.25;3.28;;;9.80;42.50;;;;;;5054345;28;20584;-68
2022/04/03 07:21:40;;;;;;;2.65;1.73;;;10.20;41.60;;;;;;5038778;28;20040;-68
2022/04/03 07:24:06;;;;;;;3.58;1.95;;;10.50;41.40;;;;;;5056500;28;20036;-68
2022/04/03 07:26:33;;;;;;;6.85;4.45;;;10.70;41.40;;;;;;5055094;28;20059;-66
2022/04/03 07:28:59;;;;;;;4.35;2.78;;;10.70;40.00;;;;;;5057690;28;20401;-68
2022/04/03 07:31:25;;;;;;;4.72;3.05;;;10.70;40.70;;;;;;5056380;28;20525;-68
2022/04/03 07:33:51;;;;;;;5.20;3.10;;;10.70;40.50;;;;;;5056066;28;20033;-68
2022/04/03 07:36:17;;;;;;;5.60;2.28;;;10.70;40.80;;;;;;5055927;28;20037;-68
2022/04/03 07:38:43;;;;;;;8.32;3.80;;;10.60;39.50;;;;;;5056925;28;20105;-68
2022/04/03 07:41:09;;;;;;;3.55;2.25;;;10.60;40.60;;;;;;5057383;28;20124;-68
2022/04/03 07:43:34;;;;;;;6.30;2.90;;;10.70;40.60;;;;;;5055371;28;20404;-68
2022/04/03 07:46:00;;;;;;;20.52;9.57;;;11.00;40.00;;;;;;5056591;28;20146;-68
2022/04/03 07:48:26;;;;;;;10.07;4.80;;;10.90;38.40;;;;;;5053393;28;20782;-68
2022/04/03 07:50:52;;;;;;;8.70;4.35;;;10.30;40.00;;;;;;5054603;28;20028;-68
2022/04/03 07:53:18;;;;;;;9.05;3.67;;;10.10;40.50;;;;;;5055492;28;20687;-68
2022/04/03 07:55:44;;;;;;;7.93;3.58;;;10.30;41.20;;;;;;5056395;28;20480;-68
2022/04/03 07:58:10;;;;;;;30.55;18.95;;;10.80;40.70;;;;;;5056749;28;20032;-68
2022/04/03 08:00:35;;;;;;;12.48;10.77;;;11.50;38.60;;;;;;5058517;28;20036;-68
2022/04/03 08:03:01;;;;;;;25.38;19.17;;;12.20;36.90;;;;;;5058435;28;20029;-68
2022/04/03 08:05:27;;;;;;;27.73;14.88;;;12.80;36.20;;;;;;5055419;28;20029;-68
2022/04/03 08:07:55;;;;;;;20.20;9.38;;;13.60;34.10;;;;;;5055657;28;20760;-68
2022/04/03 08:10:22;;;;;;;15.55;11.30;;;13.60;34.20;;;;;;5060131;28;20047;-69
2022/04/03 08:12:49;;;;;;;79.78;31.50;;;13.50;34.50;;;;;;5060012;28;20033;-67
2022/04/03 08:15:17;;;;;;;20.77;9.82;;;13.50;33.30;;;;;;5061559;28;20171;-69
2022/04/03 08:17:44;;;;;;;14.93;6.97;;;13.60;33.70;;;;;;5061184;28;20040;-69
2022/04/03 08:20:17;;;;;;;34.55;14.48;;;14.80;32.40;;;;;;5061367;28;20028;-69
2022/04/03 08:22:45;;;;;;;13.15;5.65;;;15.40;31.10;;;;;;5055777;28;20051;-69
2022/04/03 08:25:12;;;;;;;6.15;3.00;;;16.00;30.50;;;;;;5061104;28;20043;-69
2022/04/03 08:27:42;;;;;;;11.57;6.63;;;16.80;29.50;;;;;;5060800;28;20043;-68
2022/04/03 08:30:10;;;;;;;12.07;6.10;;;17.80;29.00;;;;;;5062477;28;20033;-67
2022/04/03 08:32:36;;;;;;;4.93;2.92;;;17.70;28.40;;;;;;5061657;28;20032;-69
2022/04/03 08:35:02;;;;;;;5.55;3.50;;;17.70;27.90;;;;;;5059452;28;20396;-69
2022/04/03 08:37:28;;;;;;;11.40;6.43;;;17.60;28.10;;;;;;5058409;28;20043;-69
2022/04/03 08:39:54;;;;;;;3.45;2.70;;;17.50;28.20;;;;;;5060464;28;20538;-69
2022/04/03 08:42:20;;;;;;;5.30;3.10;;;17.30;27.90;;;;;;5046882;28;20040;-69
2022/04/03 08:44:45;;;;;;;5.60;2.20;;;18.40;27.80;;;;;;5064080;28;20606;-69
2022/04/03 08:47:15;;;;;;;3.75;1.80;;;20.10;26.40;;;;;;5058186;28;20131;-69
2022/04/03 08:49:42;;;;;;;3.45;2.13;;;20.50;25.40;;;;;;5054926;28;20674;-68
2022/04/03 08:52:11;;;;;;;2.78;1.77;;;20.50;25.40;;;;;;5056975;28;20496;-69
2022/04/03 08:54:37;;;;;;;5.13;2.03;;;19.30;25.80;;;;;;5058541;28;20773;-69
2022/04/03 08:57:04;;;;;;;2.90;1.55;;;18.40;26.30;;;;;;5057436;28;20427;-69
2022/04/03 08:59:30;;;;;;;3.15;1.40;;;17.60;27.30;;;;;;5059447;28;20032;-69
2022/04/03 09:01:55;;;;;;;3.50;1.65;;;17.80;27.10;;;;;;5060740;28;20055;-70
2022/04/03 09:04:21;;;;;;;3.47;1.40;;;18.60;26.50;;;;;;5057367;28;20056;-70
2022/04/03 09:06:58;;;;;;;1.20;1.10;;;18.90;25.70;;;;;;5060122;28;20801;-69
2022/04/03 09:09:26;;;;;;;2.17;1.50;;;19.20;25.50;;;;;;5060034;28;20523;-69
2022/04/03 09:12:09;;;;;;;2.22;1.55;;;19.40;25.80;;;;;;5058616;28;20082;-69
2022/04/03 09:14:43;;;;;;;3.05;1.83;;;19.60;25.60;;;;;;5058501;28;20056;-69
2022/04/03 09:17:09;;;;;;;2.83;1.27;;;19.10;25.90;;;;;;5057674;28;20036;-70
2022/04/03 09:19:34;;;;;;;1.65;1.23;;;18.40;26.00;;;;;;5058455;28;20036;-69
2022/04/03 09:22:01;;;;;;;1.23;1.10;;;17.70;25.60;;;;;;5044069;28;20025;-69
2022/04/03 09:24:28;;;;;;;1.65;1.17;;;17.70;24.90;;;;;;5058761;28;20135;-69
2022/04/03 09:27:02;;;;;;;1.08;0.85;;;17.50;25.00;;;;;;5059847;28;20035;-70
2022/04/03 09:29:28;;;;;;;1.98;1.40;;;17.30;24.70;;;;;;5061611;28;20036;-69
2022/04/03 09:31:59;;;;;;;4.75;3.42;;;17.20;25.70;;;;;;5060221;28;20037;-69
2022/04/03 09:34:27;;;;;;;4.75;4.10;;;17.50;25.60;;;;;;5056292;28;20485;-68
2022/04/03 09:37:00;;;;;;;1.55;1.20;;;18.70;24.60;;;;;;5058319;28;20102;-67
2022/04/03 09:39:28;;;;;;;6.40;4.15;;;19.10;24.70;;;;;;5058811;28;20091;-70
2022/04/03 09:42:02;;;;;;;1.77;1.20;;;18.70;24.50;;;;;;5058930;28;20029;-70
2022/04/03 09:44:38;;;;;;;4.35;2.67;;;18.50;24.60;;;;;;5059409;28;20503;-70
2022/04/03 09:47:20;;;;;;;13.70;8.70;;;19.10;24.40;;;;;;5058009;28;20496;-70
2022/04/03 09:49:57;;;;;;;4.05;2.60;;;19.90;24.50;;;;;;5060058;28;20040;-68
2022/04/03 09:52:40;;;;;;;14.32;8.88;;;20.90;23.00;;;;;;5061640;28;20047;-68
2022/04/03 09:55:20;;;;;;;2.05;1.67;;;21.00;22.80;;;;;;5056883;28;20044;-69
2022/04/03 09:58:01;;;;;;;1.42;1.25;;;19.90;23.60;;;;;;5058443;28;20036;-69
2022/04/03 10:00:38;;;;;;;1.98;1.17;;;19.00;24.20;;;;;;5055106;28;20068;-69
2022/04/03 10:03:04;;;;;;;2.45;1.85;;;20.40;23.60;;;;;;5055748;28;20154;-69
2022/04/03 10:05:33;;;;;;;2.42;1.83;;;23.10;22.10;;;;;;5060444;28;20112;-70
2022/04/03 10:08:00;;;;;;;2.97;1.55;;;22.90;21.80;;;;;;5060622;28;20029;-70
2022/04/03 10:10:27;;;;;;;3.58;2.00;;;21.60;22.30;;;;;;5061621;28;20032;-70
2022/04/03 10:12:55;;;;;;;3.85;1.65;;;20.80;22.80;;;;;;5054662;28;20040;-71
2022/04/03 10:15:22;;;;;;;5.47;1.17;;;21.40;23.50;;;;;;5058624;28;20025;-69
2022/04/03 10:17:47;;;;;;;1.63;1.30;;;22.60;22.30;;;;;;5058746;28;20028;-70
2022/04/03 10:20:14;;;;;;;3.58;1.20;;;21.80;22.30;;;;;;5060224;28;20117;-70
2022/04/03 10:22:44;;;;;;;1.45;1.30;;;21.00;23.00;;;;;;5060495;28;20580;-70
2022/04/03 10:25:14;;;;;;;3.35;1.75;;;21.30;22.80;;;;;;5058890;28;20047;-69
2022/04/03 10:27:42;;;;;;;1.88;1.15;;;19.80;22.90;;;;;;5059528;28;20488;-69
2022/04/03 10:30:10;;;;;;;2.10;0.98;;;17.70;25.00;;;;;;5057979;28;20063;-69
2022/04/03 10:32:36;;;;;;;1.00;0.90;;;17.20;26.10;;;;;;5056530;28;20033;-70
2022/04/03 10:35:10;;;;;;;2.92;1.10;;;17.20;25.70;;;;;;5055484;28;20036;-70
2022/04/03 10:37:41;;;;;;;7.70;1.40;;;17.40;24.80;;;;;;5052337;28;20137;-70
2022/04/03 10:40:11;;;;;;;1.50;1.10;;;17.30;25.00;;;;;;5051974;28;20033;-70
2022/04/03 10:42:58;;;;;;;6.28;1.15;;;17.00;25.80;;;;;;5052145;28;20101;-69
2022/04/03 10:45:34;;;;;;;5.05;1.40;;;17.90;25.40;;;;;;5042215;28;20057;-71
2022/04/03 10:48:22;;;;;;;2.78;1.08;;;19.70;24.30;;;;;;5053536;28;20098;-69
2022/04/03 10:50:57;;;;;;;3.47;1.25;;;20.40;23.00;;;;;;5055920;28;20032;-70
2022/04/03 10:53:25;;;;;;;1.80;1.25;;;19.90;23.30;;;;;;5058590;28;20131;-70
2022/04/03 10:55:56;;;;;;;1.63;1.40;;;19.60;24.00;;;;;;5055119;28;20044;-70
2022/04/03 10:58:22;;;;;;;1.80;1.00;;;19.50;24.10;;;;;;5050544;28;20112;-72
2022/04/03 11:00:48;;;;;;;3.20;1.17;;;19.90;23.90;;;;;;5049240;28;20021;-71
2022/04/03 11:03:13;;;;;;;1.73;1.10;;;19.80;23.50;;;;;;5055921;28;20024;-70
2022/04/03 11:05:40;;;;;;;2.55;1.20;;;19.70;24.20;;;;;;5057979;28;20840;-69
2022/04/03 11:08:05;;;;;;;1.15;1.02;;;21.20;23.80;;;;;;5055625;28;20097;-70
2022/04/03 11:10:48;;;;;;;2.50;1.42;;;21.70;22.90;;;;;;5053142;28;20025;-69
2022/04/03 11:13:18;;;;;;;1.77;1.25;;;20.50;23.00;;;;;;5050043;28;20024;-71
2022/04/03 11:16:10;;;;;;;3.83;1.63;;;19.40;24.20;;;;;;5050755;28;20032;-71
2022/04/03 11:18:42;;;;;;;2.15;1.58;;;18.10;24.80;;;;;;5054816;28;20029;-73
2022/04/03 11:21:23;;;;;;;2.75;1.63;;;17.30;25.40;;;;;;5056283;28;20077;-72
2022/04/03 11:23:55;;;;;;;2.45;1.20;;;16.50;26.60;;;;;;5058124;28;20036;-69
2022/04/03 11:26:22;;;;;;;2.38;1.30;;;16.10;27.00;;;;;;5055829;28;20064;-72
2022/04/03 11:28:48;;;;;;;4.30;2.72;;;16.30;27.80;;;;;;5055863;28;20080;-72
2022/04/03 11:31:15;;;;;;;2.83;1.23;;;16.30;27.00;;;;;;5052963;28;20036;-72
2022/04/03 11:33:41;;;;;;;5.65;1.65;;;16.10;27.50;;;;;;5039846;28;20040;-73
2022/04/03 11:36:11;;;;;;;1.55;1.20;;;16.10;27.00;;;;;;5038933;28;20048;-72
2022/04/03 11:38:39;;;;;;;1.58;1.25;;;16.30;27.90;;;;;;5055165;28;20083;-72
2022/04/03 11:41:09;;;;;;;3.85;1.27;;;16.10;27.90;;;;;;5057069;28;20081;-73
2022/04/03 11:43:35;;;;;;;2.78;1.50;;;16.10;28.10;;;;;;5057488;28;20040;-71
2022/04/03 11:46:03;;;;;;;1.92;1.17;;;16.00;27.60;;;;;;5038385;28;20721;-72
2022/04/03 11:48:31;;;;;;;2.53;1.58;;;15.70;27.90;;;;;;5055631;28;20043;-72
2022/04/03 11:51:23;;;;;;;4.65;1.92;;;15.00;28.50;;;;;;5053558;28;20037;-72
2022/04/03 11:53:59;;;;;;;2.20;1.30;;;14.50;29.10;;;;;;5050959;28;20044;-72
2022/04/03 11:56:25;;;;;;;2.95;1.23;;;14.10;29.80;;;;;;5057854;28;20064;-73
2022/04/03 11:58:56;;;;;;;2.63;1.27;;;13.50;30.60;;;;;;5057351;28;20040;-73
2022/04/03 12:01:25;;;;;;;3.47;1.45;;;13.10;31.80;;;;;;5050525;28;20903;-73
2022/04/03 12:04:13;;;;;;;2.22;1.35;;;12.80;32.30;;;;;;5056042;28;20516;-74
2022/04/03 12:06:43;;;;;;;3.85;1.30;;;12.70;32.90;;;;;;5053020;28;20112;-71
2022/04/03 12:09:16;;;;;;;2.03;1.00;;;12.80;32.80;;;;;;5053759;28;20036;-73
2022/04/03 12:11:53;;;;;;;2.25;1.23;;;12.70;32.30;;;;;;5056190;28;20815;-72
2022/04/03 12:14:23;;;;;;;3.80;1.00;;;12.70;33.00;;;;;;5054976;28;20127;-72
2022/04/03 12:16:57;;;;;;;2.35;1.10;;;12.90;31.80;;;;;;5055037;28;20143;-71
2022/04/03 12:19:23;;;;;;;1.42;0.70;;;12.90;32.00;;;;;;5058711;28;20064;-71
2022/04/03 12:21:56;;;;;;;9.70;1.02;;;13.20;32.50;;;;;;5046039;28;20067;-70
2022/04/03 12:24:24;;;;;;;1.23;0.93;;;13.80;32.00;;;;;;5056988;28;20025;-69
2022/04/03 12:26:53;;;;;;;2.90;1.50;;;14.20;31.10;;;;;;5056421;28;20094;-70
2022/04/03 12:29:20;;;;;;;2.13;1.30;;;14.30;30.50;;;;;;5038625;28;20036;-69
2022/04/03 12:32:18;;;;;;;2.55;1.25;;;14.30;30.10;;;;;;5055432;28;20143;-69
2022/04/03 12:34:48;;;;;;;3.75;2.08;;;14.10;30.80;;;;;;5036265;28;20103;-69
2022/04/03 12:37:15;;;;;;;1.38;1.13;;;13.60;31.80;;;;;;5056513;28;20831;-68
2022/04/03 12:39:46;;;;;;;1.60;0.93;;;13.10;32.10;;;;;;5058378;28;20063;-68
2022/04/03 12:42:19;;;;;;;3.45;1.00;;;12.80;32.90;;;;;;5057827;28;20029;-68
2022/04/03 12:44:46;;;;;;;1.77;1.00;;;12.70;33.60;;;;;;5054431;28;20040;-69
2022/04/03 12:47:17;;;;;;;2.30;1.20;;;12.80;34.30;;;;;;5037141;28;20872;-67
2022/04/03 12:50:07;;;;;;;3.78;1.02;;;12.90;33.50;;;;;;5050147;28;20048;-67
2022/04/03 12:52:45;;;;;;;1.83;1.25;;;13.10;33.70;;;;;;5055298;28;20326;-67